LiveATC.Net - Listen to live air traffic control over the Internet!

Find LiveATC Audio Streams


Airport/ARTCC Code

Frequency
(e.g., 124.400, 128.75)
Site-wide search

Browse LiveATC Feeds
LiveATC Coverage Map
Top 50 LiveATC Feeds
Bad Weather Areas

LiveATC FAQ
Offer a LiveATC Feed
Contact LiveATC.net
Press Inquiries

LiveATC on iPhone
LiveATC on Android

Windows Phone
Windows 8/10

LiveATC Mobile
(Mobile browser)

ATC Audio Archives
Interesting Recordings

LiveATC Forums

Home Page
About LiveATC.net
Make a Donation
LiveATC Store

Terms of Use
Privacy Policy

Canadian Air Freqs

AIRMETs/SIGMETs

FAA Airport Status
Nat'l Airspace Status
Arrival Demand Charts


Server Software By:
Icecast.org
Liquidsoap


Current Potentially Bad Weather Airports
(updated every 30 minutes - sorted alphabetically by ICAO code)



This page lists LiveATC.net airport areas that may be interesting to listen to because of challenging flying (weather) conditions. Challenging weather conditions include low ceilings, limited visibility, high or gusty winds, or thunderstorms.

Updated: Wed Sep 28 20:40:01 UTC 2016
Click on airport name to go to that airport area's feeds.

EICK Ground/Tower/ApproachCork Airport
WX MAP UNAVAILABLENearest METAR:
EICK 281930Z 23016KT 8000 -RA BKN004 BKN008 16/15 Q1015 TEMPO 1500 OVC001
EVRA Tower/GuardRiga International Airport
WX MAP UNAVAILABLENearest METAR:
EVRA 281950Z 20008KT 5000 -RA BR OVC005 12/11 Q1006 TEMPO 3000 RA BR OVC003
EYVI Twr/App/MiscVilnius International Airport
WX MAP UNAVAILABLENearest METAR:
EYVI 281950Z 21008KT 2800 BR OVC004 10/09 Q1012 TEMPO 1500 BR BKN002
KACK TowerNantucket Memorial Airport
kackNearest METAR:
KACK 281953Z 04019G27KT 4SM BR OVC006 16/14 A3015 RMK AO2 PK WND 04027/1939 SLP210 T01610144
KNEL/KWRI/ZNYLakehurst Maxfield Field Joint Base McGuire
knelNearest METAR:
KNEL 281948Z AUTO 07016KT 2 1/2SM BR OVC014 18/17 A3009 RMK AO2 PK WND 08026/1923 T01780167 PNO $
KBLM/N12/3N6/KMJXOld Bridge Airport
kmjxNearest METAR:
KMJX 281956Z AUTO 06015G19KT 3SM -RA BR OVC007 18/17 A3011 RMK AO2 CIG 005V010 SLP201 P0000 T01780167 TSNO
KBLM/N12/3N6/KMJXOld Bridge Airport
kblmNearest METAR:
KBLM 281956Z AUTO 04015G21KT 9SM OVC007 17/16 A3011 RMK AO2 RAE44 CIG 006V010 SLP201 P0000 T01720156 TSNO
KBOK CTAFBrookings Airport
kbokNearest METAR:
KBOK 281956Z AUTO 23004KT 1 1/4SM BR OVC002 12/11 A2997 RMK AO2 VIS 1/2V4 SLP163 T01220111 TSNO
MA/NH/RI/CT Area CTAFHopedale Industrial Park Airport
ksfzNearest METAR:
KSFZ 281956Z AUTO 05010G19KT 7SM -RA OVC007 12/11 A3025 RMK AO2 SLP263 P0000 T01220106
KCAE Gnd/Twr/AppColumbia Metropolitan Airport
kcaeNearest METAR:
KCAE 281856Z 18009KT 10SM SCT050 SCT065 BKN085 32/21 A2988 RMK AO2 LTG DSNT NE SLP115 T03220206
KCHO Ground/TowerCharlottesville-Albemarle Airport
kchoNearest METAR:
KCHO 281853Z 05010KT 5SM HZ BKN011 OVC018 21/17 A2997 RMK AO2 LTG DSNT E AND SE SLP143 T02060172
KCRG Gnd/Twr/AppCraig Municipal Airport
kcrgNearest METAR:
KCRG 281919Z 23007KT 10SM VCTS FEW110 32/20 A2994 RMK AO2 LTG DSNT W AND NW T03170200
KDAB App/Dep (All)Daytona Beach International Airport
kdabNearest METAR:
KDAB 281953Z VRB03KT 10SM -TSRA SCT022CB BKN050 BKN090 29/22 A2996 RMK AO2 LTG DSNT N SLP143 RAB05 TSB03 FRQ LTGCG OHD-NE-E TS OHD-NE-E MOV E CB ALQDS MOV E P0064 T02890222 $
KDED/1J6 CTAF/UNICOMDeLand Municipal Airport-Sidney H Taylor Field
kdedNearest METAR:
KDED 281915Z AUTO 23011KT 10SM CLR 31/19 A2996 RMK AO2 LTG DSNT W THRU NE
KFLL Ground/TowerFort Lauderdale/Hollywood International Airport
kfllNearest METAR:
KFLL 281923Z 15010KT 10SM FEW025 SCT060 BKN250 30/23 A2997 RMK AO2 LTG DSNT N TSE23 T03000233
KFXE Tower #1Fort Lauderdale Executive Airport
kfxeNearest METAR:
KFXE 281853Z 15010KT 10SM FEW046 SCT060 BKN080 31/23 A2998 RMK AO2 LTG DSNT SE SLP155 T03060233
KGAI CTAF/UNICOMMontgomery County Airpark
kgaiNearest METAR:
KGAI 281915Z AUTO 07005KT 7SM VCTS BKN046 OVC055 18/16 A3004 RMK AO1 LTG DSNT W TSB09
KGNV Ground/TowerGainesville Regional Airport
kgnvNearest METAR:
KGNV 281927Z 14003KT 10SM FEW025 SCT033 27/23 A2997 RMK AO2 LTG DSNT ALQDS TSE01B06E21 T02670228
KGSO Del/Gnd/Twr/App/ZTLPiedmont Triad International Airport
kgsoNearest METAR:
KGSO 281921Z 19008KT 10SM TS BKN030CB BKN070 BKN250 27/21 A2990 RMK AO2 FRQ LTGICCG W-NE TS W-NE MOV NE T02670206
KHUF Gnd/Twr/AppTerre Haute International Airport-Hulman Field
khufNearest METAR:
KHUF 281853Z 33011G18KT 10SM FEW034 SCT080 19/09 A2987 RMK AO2 LTG DSNT SE SLP112 T01890089
KHWO Twr/CTAF/AppNorth Perry Airport
khwoNearest METAR:
KHWO 281906Z 17008KT 10SM SCT048 31/23 A2999 RMK AO2 LTG DSNT N T03110233
KHYA/KFMH Twr/Cape AppBarnstable Municipal Airport-Boardman/Polando Field
khyaNearest METAR:
KHYA 281856Z 04013G24KT 9SM OVC009 16/13 A3016 RMK AO2 SLP214 T01610133
KJYO CTAF/Del/SFRALeesburg Executive Airport
kjyoNearest METAR:
KJYO 281915Z AUTO 04006KT 360V060 3SM RA SCT006 BKN024 OVC034 18/18 A3002 RMK AO2 LTG DSNT NE
KIND GroundIndianapolis International Airport
kindNearest METAR:
KIND 281854Z 19005KT 9SM TS FEW030 BKN055CB BKN090 14/11 A2982 RMK AO2 LTG DSNT N AND S AND SW RAE51GSB01E17 SLP095 VCSH N FRQ LTGICCG N AND VC SE-S TS N AND VC SE-S MOV SE P0020 T01390106
KINT Ground/TowerSmith Reynolds Airport
kintNearest METAR:
KINT 281915Z VRB03KT 10SM TS FEW030 BKN065 BKN080 25/19 A2992 RMK AO2 LTG DSNT ALQDS TSB09 T02500189
KISM Del/Gnd/TwrKissimmee Gateway Airport
kismNearest METAR:
KISM 281856Z VRB06KT 10SM FEW050 32/21 A2998 RMK AO2 LTG DSNT W SLP152 T03220211
KMCO Tower/AppOrlando International Airport
kmcoNearest METAR:
KMCO 281853Z VRB05KT 10SM SCT045CB BKN250 32/20 A2997 RMK AO2 LTG DSNT W SLP146 CB NW AND DSNT W MOV E VCSH NW T03220200 $
KMCO App (Disney/Ovido Satellite)Orlando International Airport
kmcoNearest METAR:
KORL 281853Z 24008KT 200V260 10SM FEW050 SCT065 32/21 A2996 RMK AO2 LTG DSNT W SLP148 T03220206
KMCO App (Disney/Ovido Satellite)Orlando International Airport
kmcoNearest METAR:
KSFB 281853Z 25007KT 10SM SCT050 SCT065 31/20 A2996 RMK AO2 LTG DSNT NW SLP144 T03110200
KMDW Ground #2/DelChicago Midway International Airport
kmdwNearest METAR:
KMDW 281853Z 36012G23KT 9SM -RA FEW019 BKN036 OVC050 14/09 A2993 RMK AO2 LTG DSNT N RAB47 SLP133 P0000 T01440094
KMIA ApproachMiami International Airport
kmiaNearest METAR:
KMIA 281853Z 20007KT 120V210 10SM FEW025 SCT100 BKN250 29/27 A3000 RMK AO2 LTG DSNT NE SLP159 CB DSNT NE AND SW T02940267
KOMN TowerOrmond Beach Municipal Airport
komnNearest METAR:
KOMN 281910Z 14004KT 5SM -TSRABR SCT022 BKN040 25/22 A2995 RMK TSB10 TS OVD MOV N
KOPF ATISOpa Locka Airport
kopfNearest METAR:
KOPF 281853Z 20010KT 10SM FEW040 30/23 A3000 RMK AO2 WSHFT 1816 LTG DSNT NE AND E SLP158 T03000233
KORH Ground/Tower/AppWorcester Regional Airport
korhNearest METAR:
KORH 281854Z 05009G19KT 10SM -RA OVC006 11/09 A3024 RMK AO2 RAB52 CIG 005V010 SLP242 P0000 T01110094
KPGD ATISCharlotte County Airport
kpgdNearest METAR:
KPGD 281853Z 24013KT 10SM CLR 32/23 A2999 RMK AO2 LTG DSNT NE SLP157 T03170228
KPIE Del/Gnd/TwrSt Petersburg-Clearwater International Airport
kpieNearest METAR:
KPIE 281853Z AUTO 24008G16KT 10SM FEW041 SCT050 32/22 A2998 RMK AO2 LTG DSNT E SLP150 T03170222
KPMP TowerPompano Beach Airpark
kpmpNearest METAR:
KPMP 281904Z 14011KT 10SM VCTS FEW035 31/23 A2998 RMK AO2 LTG DSNT N T03060233
KPWK Del/Gnd/TowerChicago Executive Airport
kpwkNearest METAR:
KPWK 281859Z 35008KT 10SM -RA FEW048 OVC060 13/10 A2996 RMK AO2 LTG DSNT E P0000 T01330100
KRDU ApproachRaleigh-Durham International Airport
krduNearest METAR:
KRDU 281851Z 17008KT 10SM SCT035 SCT100 BKN250 29/20 A2992 RMK AO2 LTG DSNT E AND SE SLP126 CB DSNT E-SE T02890200
KRSW Twr/App/DepSouthwest Florida International Airport
krswNearest METAR:
KRSW 281853Z COR 24011KT 10SM SCT035 32/22 A2998 RMK AO2 LTG DSNT E SLP150 T03170217
KSGJ Ground/TowerSt Augustine Airport
ksgjNearest METAR:
KSGJ 281924Z 13007KT 10SM VCTS SCT047 BKN055 BKN070 29/23 A2996 RMK AO2 LTG DSNT ALQDS TSB21
KSPG Ground/TowerAlbert Whitted Airport
kspgNearest METAR:
KSPG 281853Z AUTO 26011KT 10SM FEW034 30/22 A2996 RMK AO2 LTG DSNT E SLP146 T03000222
KTAN CTAFTaunton Municipal Airport
ktanNearest METAR:
KTAN 281852Z AUTO 02009G17KT 3SM BR OVC008 14/12 A3021 RMK AO2 RAE43 CIG 006V011 SLP231 P0001 T01390122
KTLH Del/Gnd/Twr/AppTallahassee Regional Airport
ktlhNearest METAR:
KTLH 281853Z 29004KT 10SM FEW035 SCT150 BKN250 31/23 A2994 RMK AO2 LTG DSNT NW RAE1757 SLP135 CB DSNT W-NW P0000 T03110228
KTMB Del/Gnd/TwrKendall-Tamiami Executive Airport
ktmbNearest METAR:
KTMB 281853Z 17007KT 10SM CLR 27/23 A3000 RMK AO2 LTG DSNT NE SLP157 T02720228
KTPA Gnd/Twr/AppTampa International Airport
ktpaNearest METAR:
KTPA 281853Z 00000KT 10SM FEW035TCU BKN240 31/22 A2998 RMK AO2 LTG DSNT SE SLP152 CB DSNT E-SE TCU ALQDS T03060222
KUGN TowerWaukegan Regional Airport
kugnNearest METAR:
KUGN 281855Z VRB05KT 10SM BKN110 15/09 A2994 RMK AO2 LTG DSNT SE RAE10 SLP137 P0000 T01500094
KVLD Gnd/Twr/App/DepValdosta Regional Airport
kvldNearest METAR:
KVLD 281853Z VRB03KT 10SM FEW043 SCT070 SCT090 32/22 A2994 RMK AO2 LTG DSNT S RAB42E53 SLP144 P0000 T03170217
Lumpur Control/Radar (North)Kuala Lumpur International Airport
WX MAP UNAVAILABLENearest METAR:
WMKK 281830Z 24005KT 140V300 9000 -RA FEW008 FEW016CB SCT029 BKN140 23/21 Q1010 TEMPO 4000 TSRA
YMML/YMMB/YMENEssendon Airport
WX MAP UNAVAILABLENearest METAR:
YMML 281900Z 01019KT 9999 FEW025 SCT055 BKN115 13/10 Q0988 TEMPO 1900/2200 4000 RA BKN015 FM1900 MOD/SEV TURB BLW 5000FT
YSCB Twr/AppCanberra International Airport
WX MAP UNAVAILABLENearest METAR:
YSCB 281900Z 11003KT 8000 RA SCT012 SCT018 BKN045 08/07 Q1001 TEMPO 1900/2200 4000 RA BKN010 FM1900 MOD/SEV TURB BLW 5000FT